Time;durP1;ratioP1;P1;durP2;ratioP2;P2;SDS_P1;SDS_P2;PMS_P1;PMS_P2;Temp;Humidity;BMP_temperature;BMP_pressure;BME280_temperature;BME280_humidity;BME280_pressure;Samples;Min_cycle;Max_cycle;Signal;HPM_P1;HPM_P2
2023/06/27 00:00:55;;;;;;;6.50;2.60;;;;;;;;;;4972174;28;20234;-83
2023/06/27 00:03:24;;;;;;;7.97;2.60;;;;;;;;;;4971751;28;20803;-82
2023/06/27 00:05:52;;;;;;;9.07;2.50;;;;;;;;;;4971796;28;20249;-83
2023/06/27 00:08:19;;;;;;;7.27;2.50;;;;;;;;;;4972142;28;20199;-82
2023/06/27 00:10:46;;;;;;;10.17;3.17;;;;;;;;;;4974795;28;20230;-82
2023/06/27 00:13:16;;;;;;;8.60;2.37;;;;;;;;;;4976207;28;20285;-83
2023/06/27 00:15:43;;;;;;;8.20;2.47;;;;;;;;;;4975406;28;20630;-82
2023/06/27 00:18:12;;;;;;;10.40;3.00;;;;;;;;;;4975699;28;20230;-82
2023/06/27 00:20:39;;;;;;;11.70;2.67;;;;;;;;;;4975568;28;20234;-82
2023/06/27 00:23:19;;;;;;;9.33;2.50;;;;;;;;;;4975844;28;20194;-83
2023/06/27 00:25:47;;;;;;;10.13;2.47;;;;;;;;;;4975011;28;20739;-82
2023/06/27 00:28:14;;;;;;;10.63;3.03;;;;;;;;;;4975209;28;20602;-82
2023/06/27 00:30:41;;;;;;;7.03;2.40;;;;;;;;;;4974716;28;20289;-82
2023/06/27 00:33:10;;;;;;;8.10;2.63;;;;;;;;;;4975200;28;20199;-82
2023/06/27 00:35:39;;;;;;;8.40;2.77;;;;;;;;;;4975158;28;20261;-83
2023/06/27 00:38:06;;;;;;;7.77;3.03;;;;;;;;;;4975230;28;20297;-82
2023/06/27 00:40:33;;;;;;;9.17;3.03;;;;;;;;;;4975188;28;20289;-82
2023/06/27 00:43:01;;;;;;;8.53;2.67;;;;;;;;;;4974903;28;20305;-83
2023/06/27 00:45:28;;;;;;;10.23;3.40;;;;;;;;;;4974755;28;20699;-82
2023/06/27 00:47:56;;;;;;;7.10;2.80;;;;;;;;;;4975022;28;20631;-81
2023/06/27 00:50:24;;;;;;;11.07;2.70;;;;;;;;;;4975386;28;20261;-81
2023/06/27 00:52:53;;;;;;;8.90;2.83;;;;;;;;;;4974964;28;20293;-83
2023/06/27 00:55:21;;;;;;;9.27;2.67;;;;;;;;;;4974975;28;20775;-82
2023/06/27 00:57:49;;;;;;;7.27;2.57;;;;;;;;;;4975234;28;20199;-83
2023/06/27 01:00:16;;;;;;;6.80;2.50;;;;;;;;;;4974648;28;20289;-83
2023/06/27 01:02:45;;;;;;;5.67;2.93;;;;;;;;;;4974352;28;20325;-82
2023/06/27 01:05:13;;;;;;;5.50;2.80;;;;;;;;;;4974912;28;20215;-83
2023/06/27 01:07:43;;;;;;;8.93;3.27;;;;;;;;;;4974812;28;20294;-83
2023/06/27 01:10:15;;;;;;;7.43;2.87;;;;;;;;;;4974886;28;20205;-82
2023/06/27 01:12:45;;;;;;;11.33;3.50;;;;;;;;;;4974034;28;20195;-82
2023/06/27 01:15:13;;;;;;;10.67;3.20;;;;;;;;;;4980436;28;20316;-82
2023/06/27 01:17:41;;;;;;;8.47;2.93;;;;;;;;;;4994217;28;20284;-82
2023/06/27 01:20:09;;;;;;;7.30;3.13;;;;;;;;;;4993930;28;20280;-81
2023/06/27 01:22:38;;;;;;;6.70;2.90;;;;;;;;;;4993132;28;20296;-83
2023/06/27 01:25:08;;;;;;;10.30;3.17;;;;;;;;;;4994212;28;20301;-83
2023/06/27 01:27:36;;;;;;;8.20;3.03;;;;;;;;;;4993238;28;20829;-83
2023/06/27 01:30:03;;;;;;;8.07;2.57;;;;;;;;;;4993689;28;20194;-82
2023/06/27 01:32:36;;;;;;;10.53;3.60;;;;;;;;;;4993566;28;20201;-83
2023/06/27 01:35:05;;;;;;;9.43;3.17;;;;;;;;;;4993624;28;20293;-83
2023/06/27 01:37:36;;;;;;;11.03;2.73;;;;;;;;;;4993964;28;20194;-82
2023/06/27 01:40:04;;;;;;;10.00;2.80;;;;;;;;;;4993847;28;20204;-82
2023/06/27 01:42:36;;;;;;;9.23;3.60;;;;;;;;;;4993551;28;20198;-83
2023/06/27 01:45:04;;;;;;;13.30;3.03;;;;;;;;;;4993856;28;20281;-83
2023/06/27 01:47:31;;;;;;;10.37;2.90;;;;;;;;;;4993186;28;20186;-83
2023/06/27 01:49:58;;;;;;;8.73;3.03;;;;;;;;;;4993298;28;20222;-82
2023/06/27 01:52:26;;;;;;;8.80;2.77;;;;;;;;;;4992948;28;20643;-83
2023/06/27 01:54:53;;;;;;;10.00;3.20;;;;;;;;;;4993333;28;20240;-83
2023/06/27 01:57:20;;;;;;;9.47;3.00;;;;;;;;;;4992908;28;20282;-83
2023/06/27 01:59:49;;;;;;;11.03;3.70;;;;;;;;;;4993804;28;20292;-82
2023/06/27 02:02:16;;;;;;;10.03;2.60;;;;;;;;;;4993079;28;20229;-82
2023/06/27 02:04:43;;;;;;;9.27;2.60;;;;;;;;;;4993181;28;20288;-82
2023/06/27 02:07:10;;;;;;;8.03;2.87;;;;;;;;;;4992724;28;20201;-82
2023/06/27 02:09:38;;;;;;;7.57;2.93;;;;;;;;;;4992814;28;20686;-82
2023/06/27 02:12:05;;;;;;;8.77;2.70;;;;;;;;;;4992967;28;20374;-82
2023/06/27 02:14:32;;;;;;;9.13;3.17;;;;;;;;;;4992056;28;20702;-83
2023/06/27 02:17:01;;;;;;;7.27;2.83;;;;;;;;;;4973369;28;20294;-83
2023/06/27 02:19:28;;;;;;;9.20;2.90;;;;;;;;;;4973536;28;20293;-83
2023/06/27 02:21:55;;;;;;;8.13;3.10;;;;;;;;;;4973860;28;20244;-82
2023/06/27 02:24:22;;;;;;;7.77;3.10;;;;;;;;;;4973051;28;20582;-83
2023/06/27 02:26:50;;;;;;;8.57;3.20;;;;;;;;;;4973437;28;20202;-82
2023/06/27 02:29:17;;;;;;;10.33;3.70;;;;;;;;;;4973176;28;20198;-83
2023/06/27 02:31:44;;;;;;;6.10;3.67;;;;;;;;;;4973008;28;20205;-83
2023/06/27 02:34:13;;;;;;;6.80;3.57;;;;;;;;;;4972189;28;20236;-82
2023/06/27 02:36:40;;;;;;;9.00;3.40;;;;;;;;;;4972997;28;20676;-83
2023/06/27 02:39:08;;;;;;;8.97;3.37;;;;;;;;;;4973377;28;20633;-82
2023/06/27 02:41:35;;;;;;;7.57;3.20;;;;;;;;;;4972771;28;20280;-82
2023/06/27 02:44:02;;;;;;;7.30;3.87;;;;;;;;;;4973111;28;20281;-83
2023/06/27 02:46:29;;;;;;;9.67;3.73;;;;;;;;;;4972899;28;20226;-83
2023/06/27 02:48:56;;;;;;;9.17;3.80;;;;;;;;;;4973482;28;20289;-82
2023/06/27 02:51:25;;;;;;;7.53;3.67;;;;;;;;;;4969294;28;20239;-82
2023/06/27 02:53:52;;;;;;;9.47;3.80;;;;;;;;;;4962391;28;20261;-82
2023/06/27 02:56:19;;;;;;;11.03;4.13;;;;;;;;;;4972785;28;20659;-83
2023/06/27 02:58:47;;;;;;;7.37;3.50;;;;;;;;;;4972860;28;20663;-82
2023/06/27 03:01:14;;;;;;;7.23;3.67;;;;;;;;;;4972881;28;20217;-83
2023/06/27 03:03:43;;;;;;;10.07;3.53;;;;;;;;;;4972486;28;20288;-83
2023/06/27 03:06:11;;;;;;;6.97;3.40;;;;;;;;;;4972824;28;20206;-83
2023/06/27 03:08:39;;;;;;;10.43;3.63;;;;;;;;;;4972356;28;20626;-82
2023/06/27 03:11:06;;;;;;;6.50;3.50;;;;;;;;;;4973092;28;20230;-83
2023/06/27 03:13:34;;;;;;;8.23;3.83;;;;;;;;;;4972985;28;20297;-83
2023/06/27 03:16:01;;;;;;;6.73;3.30;;;;;;;;;;4972477;28;20229;-83
2023/06/27 03:18:29;;;;;;;9.87;3.43;;;;;;;;;;4973123;28;20205;-83
2023/06/27 03:20:56;;;;;;;11.53;3.43;;;;;;;;;;4972547;28;20293;-83
2023/06/27 03:23:23;;;;;;;7.77;3.00;;;;;;;;;;4972154;28;20285;-82
2023/06/27 03:25:52;;;;;;;6.00;3.13;;;;;;;;;;4972347;28;20249;-83
2023/06/27 03:28:19;;;;;;;10.57;3.63;;;;;;;;;;4972590;28;20275;-83
2023/06/27 03:30:46;;;;;;;9.63;3.90;;;;;;;;;;4972290;28;20672;-83
2023/06/27 03:33:13;;;;;;;8.47;3.40;;;;;;;;;;4972244;28;20694;-81
2023/06/27 03:35:40;;;;;;;8.80;3.73;;;;;;;;;;4972159;28;20689;-83
2023/06/27 03:38:07;;;;;;;5.90;3.43;;;;;;;;;;4972243;28;20278;-83
2023/06/27 03:40:34;;;;;;;8.17;3.77;;;;;;;;;;4972672;28;20667;-83
2023/06/27 03:43:03;;;;;;;9.03;3.40;;;;;;;;;;4972429;28;20742;-83
2023/06/27 03:45:30;;;;;;;5.83;3.23;;;;;;;;;;4974677;28;20233;-83
2023/06/27 03:47:57;;;;;;;10.50;3.90;;;;;;;;;;4976573;28;20199;-83
2023/06/27 03:50:25;;;;;;;4.37;3.13;;;;;;;;;;4976474;28;20292;-83
2023/06/27 03:52:52;;;;;;;8.53;3.77;;;;;;;;;;4975570;28;20202;-83
2023/06/27 03:55:20;;;;;;;7.67;3.40;;;;;;;;;;4976004;28;20661;-83
2023/06/27 03:57:48;;;;;;;7.53;3.03;;;;;;;;;;4976222;28;20206;-83
2023/06/27 04:00:17;;;;;;;8.30;3.43;;;;;;;;;;4975850;28;20230;-83
2023/06/27 04:02:44;;;;;;;6.20;2.77;;;;;;;;;;4975866;28;20656;-83
2023/06/27 04:05:12;;;;;;;9.80;3.70;;;;;;;;;;4975744;28;20680;-84
2023/06/27 04:07:40;;;;;;;8.13;3.13;;;;;;;;;;4975649;28;20375;-83
2023/06/27 04:10:08;;;;;;;5.53;3.10;;;;;;;;;;4976178;28;20221;-84
2023/06/27 04:12:35;;;;;;;4.27;2.40;;;;;;;;;;4975673;28;20638;-84
2023/06/27 04:15:02;;;;;;;6.53;2.77;;;;;;;;;;4975407;28;20226;-83
2023/06/27 04:17:31;;;;;;;6.10;3.10;;;;;;;;;;4976013;28;20218;-83
2023/06/27 04:19:58;;;;;;;4.93;3.40;;;;;;;;;;4975425;28;20692;-83
2023/06/27 04:22:25;;;;;;;6.90;3.23;;;;;;;;;;4975652;28;20285;-83
2023/06/27 04:24:52;;;;;;;7.13;3.30;;;;;;;;;;4975437;28;20293;-83
2023/06/27 04:27:19;;;;;;;9.27;3.27;;;;;;;;;;4975357;28;20223;-83
2023/06/27 04:29:46;;;;;;;7.70;3.50;;;;;;;;;;4975639;28;20222;-82
2023/06/27 04:32:14;;;;;;;9.07;3.57;;;;;;;;;;4975492;28;20233;-82
2023/06/27 04:34:42;;;;;;;10.07;3.43;;;;;;;;;;4975151;28;20289;-82
2023/06/27 04:37:10;;;;;;;8.87;3.70;;;;;;;;;;4975068;28;20649;-83
2023/06/27 04:39:37;;;;;;;8.73;4.27;;;;;;;;;;4975235;28;20293;-82
2023/06/27 04:42:04;;;;;;;10.23;4.20;;;;;;;;;;4975064;28;20241;-82
2023/06/27 04:44:31;;;;;;;8.00;3.63;;;;;;;;;;4975483;28;20293;-82
2023/06/27 04:46:58;;;;;;;10.10;3.80;;;;;;;;;;4975295;28;20626;-82
2023/06/27 04:49:26;;;;;;;10.00;3.87;;;;;;;;;;4974735;28;20293;-82
2023/06/27 04:51:54;;;;;;;8.00;3.63;;;;;;;;;;4974688;28;20230;-83
2023/06/27 04:54:21;;;;;;;7.50;4.00;;;;;;;;;;4975201;28;20281;-83
2023/06/27 04:56:48;;;;;;;6.43;3.63;;;;;;;;;;4973712;28;20705;-84
2023/06/27 04:59:17;;;;;;;11.37;4.37;;;;;;;;;;4974965;28;20735;-82
2023/06/27 05:01:44;;;;;;;7.57;4.10;;;;;;;;;;4974795;28;20672;-82
2023/06/27 05:04:11;;;;;;;8.37;4.17;;;;;;;;;;4974818;28;20236;-82
2023/06/27 05:06:38;;;;;;;7.27;4.30;;;;;;;;;;4974299;28;20297;-81
2023/06/27 05:09:07;;;;;;;9.07;4.23;;;;;;;;;;4974751;28;20241;-81
2023/06/27 05:11:34;;;;;;;9.00;4.20;;;;;;;;;;4974711;28;20242;-82
2023/06/27 05:14:01;;;;;;;9.70;4.37;;;;;;;;;;4974645;28;20293;-82
2023/06/27 05:16:29;;;;;;;7.83;4.60;;;;;;;;;;4974502;28;20321;-81
2023/06/27 05:18:56;;;;;;;8.40;4.40;;;;;;;;;;4974693;28;20239;-81
2023/06/27 05:21:24;;;;;;;9.20;4.10;;;;;;;;;;4974166;28;20234;-82
2023/06/27 05:23:51;;;;;;;8.07;4.23;;;;;;;;;;4974463;28;20208;-82
2023/06/27 05:26:19;;;;;;;12.20;4.67;;;;;;;;;;4974233;28;20202;-82
2023/06/27 05:28:46;;;;;;;9.90;5.13;;;;;;;;;;4974386;28;20294;-82
2023/06/27 05:31:14;;;;;;;8.87;4.37;;;;;;;;;;4974569;28;20289;-82
2023/06/27 05:33:41;;;;;;;8.50;4.53;;;;;;;;;;4973853;28;20669;-80
2023/06/27 05:36:08;;;;;;;9.27;5.00;;;;;;;;;;4973834;28;20258;-82
2023/06/27 05:38:35;;;;;;;11.77;5.03;;;;;;;;;;4974168;28;20618;-80
2023/06/27 05:41:03;;;;;;;9.93;4.60;;;;;;;;;;4973401;28;20660;-81
2023/06/27 05:43:31;;;;;;;9.70;5.30;;;;;;;;;;4973965;28;20203;-80
2023/06/27 05:45:58;;;;;;;12.00;5.53;;;;;;;;;;4974038;28;20237;-79
2023/06/27 05:48:25;;;;;;;13.63;5.03;;;;;;;;;;4972620;28;20285;-80
2023/06/27 05:50:53;;;;;;;12.57;4.40;;;;;;;;;;4963731;28;20206;-80
2023/06/27 05:53:20;;;;;;;10.83;5.37;;;;;;;;;;4964172;28;20296;-82
2023/06/27 05:55:47;;;;;;;10.47;4.77;;;;;;;;;;4972310;28;20260;-81
2023/06/27 05:58:14;;;;;;;11.10;4.67;;;;;;;;;;4972898;28;20202;-81
2023/06/27 06:00:43;;;;;;;11.77;4.47;;;;;;;;;;4973604;28;20273;-80
2023/06/27 06:03:10;;;;;;;8.57;4.47;;;;;;;;;;4969510;28;20266;-82
2023/06/27 06:05:37;;;;;;;8.63;3.90;;;;;;;;;;4973185;28;20293;-81
2023/06/27 06:08:04;;;;;;;11.30;4.87;;;;;;;;;;4973365;28;20203;-81
2023/06/27 06:10:32;;;;;;;11.07;4.43;;;;;;;;;;4973363;28;20298;-80
2023/06/27 06:12:59;;;;;;;12.03;4.90;;;;;;;;;;4973467;28;20230;-81
2023/06/27 06:15:26;;;;;;;13.03;4.07;;;;;;;;;;4981047;28;20239;-81
2023/06/27 06:17:54;;;;;;;16.33;4.63;;;;;;;;;;4992542;28;20236;-81
2023/06/27 06:20:22;;;;;;;13.83;4.23;;;;;;;;;;4992313;28;20297;-81
2023/06/27 06:22:49;;;;;;;6.23;4.27;;;;;;;;;;4964983;28;20289;-82
2023/06/27 06:25:16;;;;;;;10.63;4.18;;;;;;;;;;4951714;28;20234;-82
2023/06/27 06:27:44;;;;;;;12.80;3.92;;;;;;;;;;4972039;28;20202;-80
2023/06/27 06:30:11;;;;;;;9.18;3.50;;;;;;;;;;4953206;28;20290;-80
2023/06/27 06:32:39;;;;;;;6.75;3.53;;;;;;;;;;4953305;28;20227;-81
2023/06/27 06:35:09;;;;;;;8.85;4.10;;;;;;;;;;4953493;28;20226;-81
2023/06/27 06:37:36;;;;;;;8.57;4.10;;;;;;;;;;4952882;28;20295;-81
2023/06/27 06:40:03;;;;;;;7.78;3.90;;;;;;;;;;4953280;28;20301;-81
2023/06/27 06:42:30;;;;;;;7.47;3.78;;;;;;;;;;4953235;28;20655;-81
2023/06/27 06:44:58;;;;;;;6.80;3.55;;;;;;;;;;4968337;28;20653;-81
2023/06/27 06:47:26;;;;;;;11.77;4.00;;;;;;;;;;4972201;28;20208;-81
2023/06/27 06:49:54;;;;;;;14.23;4.60;;;;;;;;;;4972456;28;20198;-82
2023/06/27 06:52:22;;;;;;;14.25;3.83;;;;;;;;;;4972548;28;20228;-82
2023/06/27 06:54:49;;;;;;;10.00;3.00;;;;;;;;;;4972320;28;20202;-83
2023/06/27 06:57:17;;;;;;;8.52;3.22;;;;;;;;;;4971065;28;20774;-80
2023/06/27 06:59:44;;;;;;;9.43;3.42;;;;;;;;;;4952693;28;20297;-81
2023/06/27 07:02:11;;;;;;;8.02;2.92;;;;;;;;;;4951989;28;20258;-81
2023/06/27 07:04:39;;;;;;;11.95;3.38;;;;;;;;;;4952765;28;20681;-80
2023/06/27 07:07:07;;;;;;;10.90;3.15;;;;;;;;;;4953106;28;20230;-81
2023/06/27 07:09:35;;;;;;;9.75;2.95;;;;;;;;;;4952818;28;20266;-79
2023/06/27 07:12:03;;;;;;;7.80;2.40;;;;;;;;;;4953454;28;20778;-83
2023/06/27 07:14:30;;;;;;;7.55;2.65;;;;;;;;;;4953911;28;20238;-83
2023/06/27 07:16:57;;;;;;;8.40;2.88;;;;;;;;;;4991521;28;20324;-82
2023/06/27 07:19:24;;;;;;;15.32;3.10;;;;;;;;;;4992719;28;20232;-83
2023/06/27 07:21:51;;;;;;;7.80;2.85;;;;;;;;;;4994998;28;20300;-83
2023/06/27 07:24:18;;;;;;;7.20;2.28;;;;;;;;;;4995055;28;20244;-81
2023/06/27 07:26:55;;;;;;;8.09;2.56;;;;;;;;;;4928971;28;10001288;-81
2023/06/27 07:29:22;;;;;;;9.27;2.63;;;;;;;;;;4975574;28;20506;-82
2023/06/27 07:31:50;;;;;;;7.93;2.58;;;;;;;;;;4974783;28;20632;-82
2023/06/27 07:34:17;;;;;;;7.13;2.58;;;;;;;;;;4975711;28;20214;-80
2023/06/27 07:36:44;;;;;;;11.15;2.58;;;;;;;;;;4975971;28;20229;-80
2023/06/27 07:39:11;;;;;;;7.20;2.20;;;;;;;;;;4978232;28;20206;-81
2023/06/27 07:41:38;;;;;;;6.18;1.85;;;;;;;;;;4978272;28;20194;-80
2023/06/27 07:44:07;;;;;;;6.60;2.10;;;;;;;;;;4978257;28;20285;-82
2023/06/27 07:46:34;;;;;;;7.90;2.05;;;;;;;;;;4977952;28;20229;-81
2023/06/27 07:49:02;;;;;;;7.20;2.00;;;;;;;;;;4978483;28;20640;-81
2023/06/27 07:51:31;;;;;;;7.38;2.15;;;;;;;;;;4966461;28;20206;-82
2023/06/27 07:54:00;;;;;;;6.35;2.20;;;;;;;;;;4958717;28;20608;-82
2023/06/27 07:56:27;;;;;;;7.60;2.15;;;;;;;;;;4958604;28;20787;-81
2023/06/27 07:58:54;;;;;;;7.68;2.03;;;;;;;;;;4958813;28;20203;-81
2023/06/27 08:01:23;;;;;;;10.93;2.88;;;;;;;;;;4958951;28;20194;-82
2023/06/27 08:03:50;;;;;;;4.43;1.95;;;;;;;;;;4958963;28;20243;-81
2023/06/27 08:06:17;;;;;;;9.48;2.47;;;;;;;;;;4958489;28;20298;-81
2023/06/27 08:08:44;;;;;;;9.02;2.05;;;;;;;;;;4958778;28;20291;-81
2023/06/27 08:11:11;;;;;;;6.55;1.83;;;;;;;;;;4958650;28;20739;-82
2023/06/27 08:13:41;;;;;;;4.97;1.65;;;;;;;;;;4958756;28;20596;-81
2023/06/27 08:16:08;;;;;;;8.00;2.10;;;;;;;;;;4985181;28;20680;-82
2023/06/27 08:18:37;;;;;;;7.93;2.10;;;;;;;;;;4997557;28;20289;-81
2023/06/27 08:21:04;;;;;;;6.20;1.90;;;;;;;;;;4997379;28;20286;-82
2023/06/27 08:23:32;;;;;;;6.05;1.77;;;;;;;;;;4997639;28;20205;-81
2023/06/27 08:25:59;;;;;;;7.30;1.85;;;;;;;;;;4997661;28;20205;-82
2023/06/27 08:28:26;;;;;;;5.40;1.83;;;;;;;;;;4997230;28;20234;-83
2023/06/27 08:30:55;;;;;;;8.98;1.98;;;;;;;;;;4995702;28;20236;-83
2023/06/27 08:33:22;;;;;;;7.63;1.88;;;;;;;;;;4994644;28;20236;-83
2023/06/27 08:35:51;;;;;;;6.22;1.90;;;;;;;;;;4994013;28;20288;-82
2023/06/27 08:38:19;;;;;;;6.30;1.73;;;;;;;;;;4994484;28;20583;-80
2023/06/27 08:40:47;;;;;;;6.70;1.83;;;;;;;;;;4994163;28;20671;-82
2023/06/27 08:43:15;;;;;;;9.65;2.20;;;;;;;;;;4994126;28;20252;-82
2023/06/27 08:45:42;;;;;;;5.25;1.90;;;;;;;;;;4994211;28;20201;-82
2023/06/27 08:48:10;;;;;;;6.05;2.13;;;;;;;;;;4980070;28;20294;-82
2023/06/27 08:50:40;;;;;;;6.13;2.25;;;;;;;;;;4962808;28;20298;-81
2023/06/27 08:53:13;;;;;;;3.85;1.75;;;;;;;;;;4962807;28;20205;-81
2023/06/27 08:55:43;;;;;;;6.68;1.90;;;;;;;;;;4962758;28;20246;-82
2023/06/27 08:58:12;;;;;;;8.93;2.25;;;;;;;;;;4961931;28;20317;-80
2023/06/27 09:00:39;;;;;;;5.10;2.00;;;;;;;;;;4963521;28;20204;-81
2023/06/27 09:03:07;;;;;;;5.22;1.73;;;;;;;;;;4963284;28;20325;-81
2023/06/27 09:05:35;;;;;;;5.47;1.90;;;;;;;;;;4962318;28;20637;-81
2023/06/27 09:08:02;;;;;;;7.72;2.28;;;;;;;;;;4963793;28;20640;-79
2023/06/27 09:10:31;;;;;;;7.95;1.80;;;;;;;;;;4958298;28;20282;-81
2023/06/27 09:12:59;;;;;;;9.73;1.98;;;;;;;;;;4954275;29;20211;-81
2023/06/27 09:15:27;;;;;;;6.35;2.03;;;;;;;;;;4970826;28;20689;-81
2023/06/27 09:17:54;;;;;;;8.13;2.10;;;;;;;;;;4993677;28;20602;-81
2023/06/27 09:20:21;;;;;;;7.07;1.60;;;;;;;;;;4993567;28;20229;-81
2023/06/27 09:22:49;;;;;;;6.68;1.83;;;;;;;;;;4993622;28;20205;-82
2023/06/27 09:25:19;;;;;;;6.20;1.65;;;;;;;;;;4993541;28;20208;-81
2023/06/27 09:27:48;;;;;;;5.68;1.55;;;;;;;;;;4993806;28;20206;-82
2023/06/27 09:30:15;;;;;;;7.15;1.40;;;;;;;;;;4993103;28;20288;-81
2023/06/27 09:32:56;;;;;;;7.03;1.77;;;;;;;;;;4993630;28;20228;-82
2023/06/27 09:35:24;;;;;;;4.63;1.73;;;;;;;;;;4993333;28;20240;-82
2023/06/27 09:37:51;;;;;;;4.68;1.70;;;;;;;;;;4970190;28;20230;-82
2023/06/27 09:40:19;;;;;;;5.78;1.50;;;;;;;;;;4954315;28;20477;-84
2023/06/27 09:42:54;;;;;;;3.95;1.50;;;;;;;;;;4953945;28;20206;-81
2023/06/27 09:45:22;;;;;;;8.38;1.63;;;;;;;;;;4954589;28;20290;-80
2023/06/27 09:47:50;;;;;;;4.82;1.60;;;;;;;;;;4954381;28;20239;-81
2023/06/27 09:50:17;;;;;;;2.72;1.42;;;;;;;;;;4954147;28;20219;-81
2023/06/27 09:52:51;;;;;;;3.53;1.42;;;;;;;;;;4954391;28;20723;-83
2023/06/27 09:55:19;;;;;;;4.47;1.50;;;;;;;;;;4956965;28;20241;-82
2023/06/27 09:57:46;;;;;;;5.88;1.60;;;;;;;;;;4970639;28;20313;-83
2023/06/27 10:00:18;;;;;;;4.63;1.60;;;;;;;;;;4973466;28;20286;-82
2023/06/27 10:02:47;;;;;;;3.92;1.60;;;;;;;;;;4973205;28;20285;-83
2023/06/27 10:05:15;;;;;;;3.35;1.63;;;;;;;;;;4973442;28;20285;-82
2023/06/27 10:07:42;;;;;;;4.32;1.73;;;;;;;;;;4973912;28;20293;-82
2023/06/27 10:10:09;;;;;;;4.78;1.50;;;;;;;;;;4972707;28;20570;-82
2023/06/27 10:12:37;;;;;;;3.72;1.27;;;;;;;;;;4973392;28;20297;-83
2023/06/27 10:15:04;;;;;;;3.75;1.67;;;;;;;;;;4973036;28;20730;-83
2023/06/27 10:17:33;;;;;;;4.07;1.60;;;;;;;;;;4972882;28;20277;-83
2023/06/27 10:20:01;;;;;;;5.13;1.70;;;;;;;;;;4973072;28;20289;-82
2023/06/27 10:22:30;;;;;;;4.93;1.83;;;;;;;;;;4973146;28;20638;-82
2023/06/27 10:25:02;;;;;;;4.50;1.58;;;;;;;;;;4972656;28;20241;-83
2023/06/27 10:27:34;;;;;;;4.50;1.60;;;;;;;;;;4967599;28;20219;-83
2023/06/27 10:30:04;;;;;;;4.88;1.80;;;;;;;;;;4972837;28;20210;-84
2023/06/27 10:32:43;;;;;;;4.13;1.38;;;;;;;;;;4963208;28;20566;-85
2023/06/27 10:35:12;;;;;;;6.53;1.90;;;;;;;;;;4973692;28;20472;-83
2023/06/27 10:37:42;;;;;;;6.47;2.30;;;;;;;;;;4953895;28;20235;-86
2023/06/27 10:40:10;;;;;;;3.28;1.60;;;;;;;;;;4952847;28;20561;-85
2023/06/27 10:42:38;;;;;;;6.38;1.70;;;;;;;;;;4971692;28;20206;-86
2023/06/27 10:45:09;;;;;;;3.38;1.50;;;;;;;;;;4966512;28;20199;-84
2023/06/27 10:47:38;;;;;;;5.47;1.60;;;;;;;;;;4963458;28;20257;-86
2023/06/27 10:50:08;;;;;;;4.07;1.50;;;;;;;;;;4972967;28;20279;-84
2023/06/27 10:52:35;;;;;;;4.20;1.55;;;;;;;;;;4973248;28;20286;-85
2023/06/27 10:55:22;;;;;;;3.83;1.65;;;;;;;;;;4971994;28;20297;-85
2023/06/27 10:57:50;;;;;;;3.72;1.50;;;;;;;;;;4973374;28;20265;-85
2023/06/27 11:00:23;;;;;;;5.72;1.90;;;;;;;;;;4972895;28;20206;-85
2023/06/27 11:02:53;;;;;;;3.53;1.45;;;;;;;;;;4972518;28;20241;-86
2023/06/27 11:05:36;;;;;;;3.47;1.80;;;;;;;;;;4973144;28;20237;-84
2023/06/27 11:08:04;;;;;;;4.07;1.70;;;;;;;;;;4972419;28;20297;-85
2023/06/27 11:10:31;;;;;;;3.13;1.50;;;;;;;;;;4972873;28;20281;-85
2023/06/27 11:13:13;;;;;;;4.40;1.67;;;;;;;;;;4972830;28;20230;-84
2023/06/27 11:15:41;;;;;;;4.40;1.40;;;;;;;;;;4972872;28;20210;-84
2023/06/27 11:18:08;;;;;;;2.63;1.27;;;;;;;;;;4972358;28;20332;-84
2023/06/27 11:20:37;;;;;;;4.70;1.50;;;;;;;;;;4972487;28;20253;-82
2023/06/27 11:23:04;;;;;;;4.68;1.30;;;;;;;;;;4972110;28;20668;-84
2023/06/27 11:25:37;;;;;;;3.40;1.55;;;;;;;;;;4972387;28;20202;-82
2023/06/27 11:28:04;;;;;;;5.40;1.63;;;;;;;;;;4972358;28;20202;-83
2023/06/27 11:30:33;;;;;;;6.18;1.95;;;;;;;;;;4961291;28;20623;-84
2023/06/27 11:33:01;;;;;;;9.05;2.60;;;;;;;;;;4963054;28;20207;-83
2023/06/27 11:35:29;;;;;;;5.82;1.73;;;;;;;;;;4964529;28;20202;-83
2023/06/27 11:37:58;;;;;;;4.88;1.75;;;;;;;;;;4963644;28;20612;-83
2023/06/27 11:40:26;;;;;;;4.05;1.80;;;;;;;;;;4962623;28;20628;-83
2023/06/27 11:43:00;;;;;;;4.72;1.60;;;;;;;;;;4962009;28;20294;-84
2023/06/27 11:45:27;;;;;;;6.45;1.58;;;;;;;;;;4961068;28;20198;-84
2023/06/27 11:47:54;;;;;;;3.70;1.40;;;;;;;;;;4961946;28;20199;-84
2023/06/27 11:50:23;;;;;;;3.35;1.55;;;;;;;;;;4962700;28;20267;-85
2023/06/27 11:52:51;;;;;;;4.40;1.83;;;;;;;;;;4961613;28;20207;-84
2023/06/27 11:55:19;;;;;;;5.63;1.65;;;;;;;;;;4961011;28;20230;-84
2023/06/27 11:57:47;;;;;;;2.72;1.30;;;;;;;;;;4960814;28;20222;-84
2023/06/27 12:00:19;;;;;;;3.45;1.50;;;;;;;;;;4960821;28;20723;-82
2023/06/27 12:02:50;;;;;;;4.63;1.63;;;;;;;;;;4960736;28;20227;-83
2023/06/27 12:05:18;;;;;;;3.80;1.60;;;;;;;;;;4961519;28;20750;-84
2023/06/27 12:07:57;;;;;;;3.80;1.50;;;;;;;;;;4966704;28;20277;-84
2023/06/27 12:10:26;;;;;;;4.15;1.60;;;;;;;;;;4966400;28;20317;-84
2023/06/27 12:12:53;;;;;;;4.20;1.70;;;;;;;;;;4965025;28;20316;-85
2023/06/27 12:15:21;;;;;;;5.47;1.67;;;;;;;;;;4966443;28;20293;-83
2023/06/27 12:17:58;;;;;;;3.83;1.65;;;;;;;;;;4966522;28;20312;-83
2023/06/27 12:20:26;;;;;;;3.95;1.50;;;;;;;;;;4965711;28;20198;-83
2023/06/27 12:22:53;;;;;;;3.53;1.60;;;;;;;;;;4964962;28;20656;-83
2023/06/27 12:25:21;;;;;;;4.22;1.35;;;;;;;;;;4964221;28;20224;-83
2023/06/27 12:27:49;;;;;;;5.80;1.45;;;;;;;;;;4964716;28;20278;-84
2023/06/27 12:30:17;;;;;;;4.85;1.48;;;;;;;;;;4964442;28;20202;-83
2023/06/27 12:32:44;;;;;;;5.25;1.60;;;;;;;;;;4963669;28;20254;-84
2023/06/27 12:35:17;;;;;;;3.40;1.45;;;;;;;;;;4965125;28;20218;-83
2023/06/27 12:37:44;;;;;;;5.00;1.50;;;;;;;;;;4963402;28;20379;-83
2023/06/27 12:40:12;;;;;;;5.78;1.80;;;;;;;;;;4963537;28;20689;-83
2023/06/27 12:42:40;;;;;;;4.28;1.33;;;;;;;;;;4964176;28;20734;-83
2023/06/27 12:45:09;;;;;;;7.80;1.85;;;;;;;;;;4964377;28;20206;-83
2023/06/27 12:47:41;;;;;;;4.18;1.45;;;;;;;;;;4963760;28;20290;-83
2023/06/27 12:50:08;;;;;;;6.82;1.52;;;;;;;;;;4962904;28;20625;-82
2023/06/27 12:52:35;;;;;;;8.00;1.90;;;;;;;;;;4962982;28;20273;-83
2023/06/27 12:55:03;;;;;;;5.80;1.90;;;;;;;;;;4961402;28;20289;-83
2023/06/27 12:57:30;;;;;;;3.60;1.55;;;;;;;;;;4973028;28;20253;-82
2023/06/27 12:59:57;;;;;;;12.38;2.25;;;;;;;;;;4967260;28;20225;-83
2023/06/27 13:02:26;;;;;;;7.10;1.67;;;;;;;;;;4962185;28;20222;-81
2023/06/27 13:04:53;;;;;;;4.78;1.67;;;;;;;;;;4969298;28;20234;-82
2023/06/27 13:07:20;;;;;;;3.78;1.40;;;;;;;;;;4957841;28;20254;-82
2023/06/27 13:09:47;;;;;;;4.35;1.90;;;;;;;;;;4967533;28;20675;-83
2023/06/27 13:12:15;;;;;;;4.65;1.90;;;;;;;;;;4962709;28;20263;-84
2023/06/27 13:14:42;;;;;;;3.15;1.60;;;;;;;;;;4962462;28;20208;-83
2023/06/27 13:17:09;;;;;;;3.67;1.52;;;;;;;;;;4972023;28;20207;-83
2023/06/27 13:19:38;;;;;;;3.88;1.50;;;;;;;;;;4960063;28;20195;-83
2023/06/27 13:22:06;;;;;;;4.90;1.80;;;;;;;;;;4974020;28;20199;-83
2023/06/27 13:24:34;;;;;;;3.30;1.60;;;;;;;;;;4973789;28;20664;-84
2023/06/27 13:27:01;;;;;;;3.05;1.48;;;;;;;;;;4965601;28;20198;-83
2023/06/27 13:29:28;;;;;;;4.60;1.73;;;;;;;;;;4962138;28;20205;-83
2023/06/27 13:31:56;;;;;;;6.28;1.65;;;;;;;;;;4965025;28;20199;-82
2023/06/27 13:34:23;;;;;;;2.95;1.35;;;;;;;;;;4964984;28;20299;-82
2023/06/27 13:36:52;;;;;;;2.97;1.60;;;;;;;;;;4972212;28;20261;-82
2023/06/27 13:39:19;;;;;;;3.53;1.50;;;;;;;;;;4972281;28;20318;-82
2023/06/27 13:41:46;;;;;;;2.63;1.30;;;;;;;;;;4972359;28;20199;-82
2023/06/27 13:44:14;;;;;;;4.30;1.55;;;;;;;;;;4968989;28;20694;-82
2023/06/27 13:46:41;;;;;;;7.00;1.75;;;;;;;;;;4969125;28;20195;-82
2023/06/27 13:49:09;;;;;;;4.18;1.80;;;;;;;;;;4968462;28;20285;-83
2023/06/27 13:51:36;;;;;;;5.18;1.65;;;;;;;;;;4965177;28;20213;-83
2023/06/27 13:54:06;;;;;;;3.78;1.60;;;;;;;;;;4968730;28;20207;-83
2023/06/27 13:56:34;;;;;;;4.30;1.60;;;;;;;;;;4966101;28;20274;-83
2023/06/27 13:59:01;;;;;;;4.95;1.55;;;;;;;;;;4970794;28;21014;-82
2023/06/27 14:01:29;;;;;;;3.15;1.60;;;;;;;;;;4971850;28;20400;-83
2023/06/27 14:03:58;;;;;;;3.30;1.40;;;;;;;;;;4964753;28;20726;-83
2023/06/27 14:06:27;;;;;;;3.65;1.80;;;;;;;;;;4964554;28;20293;-83
2023/06/27 14:08:54;;;;;;;4.00;1.80;;;;;;;;;;4958081;28;20274;-82
2023/06/27 14:11:22;;;;;;;3.85;1.60;;;;;;;;;;4970013;28;20230;-83
2023/06/27 14:13:50;;;;;;;5.18;1.70;;;;;;;;;;4959677;28;20285;-83
2023/06/27 14:16:18;;;;;;;4.47;1.67;;;;;;;;;;4972747;28;20265;-82
2023/06/27 14:18:46;;;;;;;2.42;1.30;;;;;;;;;;4956275;28;20326;-83
2023/06/27 14:21:13;;;;;;;4.70;1.40;;;;;;;;;;4966403;28;20242;-83
2023/06/27 14:23:41;;;;;;;4.15;1.80;;;;;;;;;;4963491;28;20203;-84
2023/06/27 14:26:09;;;;;;;3.72;1.50;;;;;;;;;;4972842;28;20738;-82
2023/06/27 14:28:38;;;;;;;3.90;1.73;;;;;;;;;;4956789;28;20207;-83
2023/06/27 14:31:05;;;;;;;4.03;1.60;;;;;;;;;;4966981;28;20278;-82
2023/06/27 14:33:32;;;;;;;4.95;1.40;;;;;;;;;;4962231;28;20285;-83
2023/06/27 14:35:59;;;;;;;3.92;1.50;;;;;;;;;;4959798;28;20203;-83
2023/06/27 14:38:27;;;;;;;3.42;1.33;;;;;;;;;;4965738;28;20711;-83
2023/06/27 14:40:54;;;;;;;4.03;1.70;;;;;;;;;;4957953;28;20199;-83
2023/06/27 14:43:22;;;;;;;4.00;1.70;;;;;;;;;;4965457;28;20222;-83
2023/06/27 14:45:50;;;;;;;4.70;1.70;;;;;;;;;;4959754;28;20678;-83